Itaguari, Brazil
Current Conditions -  °F | °C
As of 1:00 AM on Thursday 23 Oct 2014 (Local Time) from SBAN Reporting Station
Thunderstorm Thunderstorm  
Wind Chill: 64°   Ceiling: 10000
Heat Index: 64°   Visibility: 5mi
Dew Point: 61°   Wind: 2mph
Humidity: 88%   Direction: 360°N
Pressure: NA   Gusts: NA
Location:  15.92°S, 49.6°W
Report Text: SBAN 230300Z 36002KT 8000 -TSRA SCT030 FEW040CB OVC100 18/16 Q1021
Loading
Personal Weather Stations






























Interactive Weather Map
Tropical Storm Tracking
New forecast layout! Learn more

10-Day Weather Forecast

Advertisements
Track Severe Weather on mobile